sensor_id;sensor_type;location;lat;lon;timestamp;temperature;humidity
19164;DHT22;9714;51.208;4.242;2024-01-25T00:01:58;10.80;99.90
19164;DHT22;9714;51.208;4.242;2024-01-25T00:04:25;10.70;99.90
19164;DHT22;9714;51.208;4.242;2024-01-25T00:06:52;10.60;99.90
19164;DHT22;9714;51.208;4.242;2024-01-25T00:09:19;10.50;99.90
19164;DHT22;9714;51.208;4.242;2024-01-25T00:11:47;10.30;99.90
19164;DHT22;9714;51.208;4.242;2024-01-25T00:14:14;10.50;99.90
19164;DHT22;9714;51.208;4.242;2024-01-25T00:16:42;10.60;99.90
19164;DHT22;9714;51.208;4.242;2024-01-25T00:19:09;10.80;99.90
19164;DHT22;9714;51.208;4.242;2024-01-25T00:21:41;10.60;99.90
19164;DHT22;9714;51.208;4.242;2024-01-25T00:24:11;10.60;99.90
19164;DHT22;9714;51.208;4.242;2024-01-25T00:26:38;10.30;99.90
19164;DHT22;9714;51.208;4.242;2024-01-25T00:29:07;10.20;99.90
19164;DHT22;9714;51.208;4.242;2024-01-25T00:31:34;10.10;99.90
19164;DHT22;9714;51.208;4.242;2024-01-25T00:34:02;9.90;99.90
19164;DHT22;9714;51.208;4.242;2024-01-25T00:36:30;9.90;99.90
19164;DHT22;9714;51.208;4.242;2024-01-25T00:38:57;10.10;99.90
19164;DHT22;9714;51.208;4.242;2024-01-25T00:41:24;10.20;99.90
19164;DHT22;9714;51.208;4.242;2024-01-25T00:43:53;10.20;99.90
19164;DHT22;9714;51.208;4.242;2024-01-25T00:46:22;10.10;99.90
19164;DHT22;9714;51.208;4.242;2024-01-25T00:48:49;10.00;99.90
19164;DHT22;9714;51.208;4.242;2024-01-25T00:51:21;10.00;99.90
19164;DHT22;9714;51.208;4.242;2024-01-25T00:53:49;10.00;99.90
19164;DHT22;9714;51.208;4.242;2024-01-25T00:56:18;9.90;99.90
19164;DHT22;9714;51.208;4.242;2024-01-25T00:58:45;9.80;99.90
19164;DHT22;9714;51.208;4.242;2024-01-25T01:01:13;9.80;99.90
19164;DHT22;9714;51.208;4.242;2024-01-25T01:03:42;9.80;99.90
19164;DHT22;9714;51.208;4.242;2024-01-25T01:06:10;9.60;99.90
19164;DHT22;9714;51.208;4.242;2024-01-25T01:08:37;9.60;99.90
19164;DHT22;9714;51.208;4.242;2024-01-25T01:11:06;9.70;99.90
19164;DHT22;9714;51.208;4.242;2024-01-25T01:13:33;9.80;99.90
19164;DHT22;9714;51.208;4.242;2024-01-25T01:16:01;9.60;99.90
19164;DHT22;9714;51.208;4.242;2024-01-25T01:18:28;9.60;99.90
19164;DHT22;9714;51.208;4.242;2024-01-25T01:20:57;9.50;99.90
19164;DHT22;9714;51.208;4.242;2024-01-25T01:23:24;9.70;99.90
19164;DHT22;9714;51.208;4.242;2024-01-25T01:25:51;9.80;99.90
19164;DHT22;9714;51.208;4.242;2024-01-25T01:28:19;9.70;99.90
19164;DHT22;9714;51.208;4.242;2024-01-25T01:30:47;9.50;99.90
19164;DHT22;9714;51.208;4.242;2024-01-25T01:33:14;9.20;99.90
19164;DHT22;9714;51.208;4.242;2024-01-25T01:35:42;9.20;99.90
19164;DHT22;9714;51.208;4.242;2024-01-25T01:38:12;9.20;99.90
19164;DHT22;9714;51.208;4.242;2024-01-25T01:40:40;9.20;99.90
19164;DHT22;9714;51.208;4.242;2024-01-25T01:43:17;9.10;99.90
19164;DHT22;9714;51.208;4.242;2024-01-25T01:45:46;9.20;99.90
19164;DHT22;9714;51.208;4.242;2024-01-25T01:48:13;9.20;99.90
19164;DHT22;9714;51.208;4.242;2024-01-25T01:50:42;9.30;99.90
19164;DHT22;9714;51.208;4.242;2024-01-25T01:53:12;9.30;99.90
19164;DHT22;9714;51.208;4.242;2024-01-25T01:55:40;9.00;99.90
19164;DHT22;9714;51.208;4.242;2024-01-25T01:58:08;9.10;99.90
19164;DHT22;9714;51.208;4.242;2024-01-25T02:00:42;9.10;99.90
19164;DHT22;9714;51.208;4.242;2024-01-25T02:03:10;9.00;99.90
19164;DHT22;9714;51.208;4.242;2024-01-25T02:05:37;9.00;99.90
19164;DHT22;9714;51.208;4.242;2024-01-25T02:08:05;8.90;99.90
19164;DHT22;9714;51.208;4.242;2024-01-25T02:10:35;8.90;99.90
19164;DHT22;9714;51.208;4.242;2024-01-25T02:13:02;8.90;99.90
19164;DHT22;9714;51.208;4.242;2024-01-25T02:15:29;9.00;99.90
19164;DHT22;9714;51.208;4.242;2024-01-25T02:17:57;8.90;99.90
19164;DHT22;9714;51.208;4.242;2024-01-25T02:20:24;8.80;99.90
19164;DHT22;9714;51.208;4.242;2024-01-25T02:22:53;8.70;99.90
19164;DHT22;9714;51.208;4.242;2024-01-25T02:25:20;8.60;99.90
19164;DHT22;9714;51.208;4.242;2024-01-25T02:27:47;8.90;99.90
19164;DHT22;9714;51.208;4.242;2024-01-25T02:30:15;8.80;99.90
19164;DHT22;9714;51.208;4.242;2024-01-25T02:32:43;8.60;99.90
19164;DHT22;9714;51.208;4.242;2024-01-25T02:35:10;8.50;99.90
19164;DHT22;9714;51.208;4.242;2024-01-25T02:37:37;8.50;99.90
19164;DHT22;9714;51.208;4.242;2024-01-25T02:40:07;8.80;99.90
19164;DHT22;9714;51.208;4.242;2024-01-25T02:42:34;8.80;99.90
19164;DHT22;9714;51.208;4.242;2024-01-25T02:45:02;8.60;99.90
19164;DHT22;9714;51.208;4.242;2024-01-25T02:47:29;8.50;99.90
19164;DHT22;9714;51.208;4.242;2024-01-25T02:49:56;8.30;99.90
19164;DHT22;9714;51.208;4.242;2024-01-25T02:52:23;8.50;99.90
19164;DHT22;9714;51.208;4.242;2024-01-25T02:54:51;8.60;99.90
19164;DHT22;9714;51.208;4.242;2024-01-25T02:57:19;8.50;99.90
19164;DHT22;9714;51.208;4.242;2024-01-25T02:59:46;8.30;99.90
19164;DHT22;9714;51.208;4.242;2024-01-25T03:02:14;8.20;99.90
19164;DHT22;9714;51.208;4.242;2024-01-25T03:04:45;8.20;99.90
19164;DHT22;9714;51.208;4.242;2024-01-25T03:07:13;8.40;99.90
19164;DHT22;9714;51.208;4.242;2024-01-25T03:09:40;8.40;99.90
19164;DHT22;9714;51.208;4.242;2024-01-25T03:12:07;8.30;99.90
19164;DHT22;9714;51.208;4.242;2024-01-25T03:14:37;8.30;99.90
19164;DHT22;9714;51.208;4.242;2024-01-25T03:17:10;8.10;99.90
19164;DHT22;9714;51.208;4.242;2024-01-25T03:19:38;7.90;99.90
19164;DHT22;9714;51.208;4.242;2024-01-25T03:22:05;7.80;99.90
19164;DHT22;9714;51.208;4.242;2024-01-25T03:24:36;7.80;99.90
19164;DHT22;9714;51.208;4.242;2024-01-25T03:27:04;7.90;99.90
19164;DHT22;9714;51.208;4.242;2024-01-25T03:29:45;8.00;99.90
19164;DHT22;9714;51.208;4.242;2024-01-25T03:32:13;8.00;99.90
19164;DHT22;9714;51.208;4.242;2024-01-25T03:34:40;7.90;99.90
19164;DHT22;9714;51.208;4.242;2024-01-25T03:37:09;7.80;99.90
19164;DHT22;9714;51.208;4.242;2024-01-25T03:39:36;7.70;99.90
19164;DHT22;9714;51.208;4.242;2024-01-25T03:42:04;7.60;99.90
19164;DHT22;9714;51.208;4.242;2024-01-25T03:44:31;7.50;99.90
19164;DHT22;9714;51.208;4.242;2024-01-25T03:47:00;7.40;99.90
19164;DHT22;9714;51.208;4.242;2024-01-25T03:49:27;7.50;99.90
19164;DHT22;9714;51.208;4.242;2024-01-25T03:51:54;7.30;99.90
19164;DHT22;9714;51.208;4.242;2024-01-25T03:54:27;7.30;99.90
19164;DHT22;9714;51.208;4.242;2024-01-25T03:56:54;7.20;99.90
19164;DHT22;9714;51.208;4.242;2024-01-25T03:59:22;7.20;99.90
19164;DHT22;9714;51.208;4.242;2024-01-25T04:01:50;7.20;99.90
19164;DHT22;9714;51.208;4.242;2024-01-25T04:04:19;7.20;99.90
19164;DHT22;9714;51.208;4.242;2024-01-25T04:06:46;7.20;99.90
19164;DHT22;9714;51.208;4.242;2024-01-25T04:09:14;7.20;99.90
19164;DHT22;9714;51.208;4.242;2024-01-25T04:11:43;7.20;99.90
19164;DHT22;9714;51.208;4.242;2024-01-25T04:14:11;7.20;99.90
19164;DHT22;9714;51.208;4.242;2024-01-25T04:16:40;7.20;99.90
19164;DHT22;9714;51.208;4.242;2024-01-25T04:19:10;7.10;99.90
19164;DHT22;9714;51.208;4.242;2024-01-25T04:21:39;7.10;99.90
19164;DHT22;9714;51.208;4.242;2024-01-25T04:24:08;7.10;99.90
19164;DHT22;9714;51.208;4.242;2024-01-25T04:26:35;7.10;99.90
19164;DHT22;9714;51.208;4.242;2024-01-25T04:29:02;7.00;99.90
19164;DHT22;9714;51.208;4.242;2024-01-25T04:31:30;7.10;99.90
19164;DHT22;9714;51.208;4.242;2024-01-25T04:33:57;7.00;99.90
19164;DHT22;9714;51.208;4.242;2024-01-25T04:36:24;7.00;99.90
19164;DHT22;9714;51.208;4.242;2024-01-25T04:38:53;6.90;99.90
19164;DHT22;9714;51.208;4.242;2024-01-25T04:41:20;6.90;99.90
19164;DHT22;9714;51.208;4.242;2024-01-25T04:43:47;6.80;99.90
19164;DHT22;9714;51.208;4.242;2024-01-25T04:46:14;6.70;99.90
19164;DHT22;9714;51.208;4.242;2024-01-25T04:48:42;6.70;99.90
19164;DHT22;9714;51.208;4.242;2024-01-25T04:51:15;6.70;99.90
19164;DHT22;9714;51.208;4.242;2024-01-25T04:53:44;6.70;99.90
19164;DHT22;9714;51.208;4.242;2024-01-25T04:56:15;6.60;99.90
19164;DHT22;9714;51.208;4.242;2024-01-25T04:58:45;6.70;99.90
19164;DHT22;9714;51.208;4.242;2024-01-25T05:01:12;6.70;99.90
19164;DHT22;9714;51.208;4.242;2024-01-25T05:03:39;6.70;99.90
19164;DHT22;9714;51.208;4.242;2024-01-25T05:06:13;6.60;99.90
19164;DHT22;9714;51.208;4.242;2024-01-25T05:08:42;6.50;99.90
19164;DHT22;9714;51.208;4.242;2024-01-25T05:11:10;6.40;99.90
19164;DHT22;9714;51.208;4.242;2024-01-25T05:13:39;6.50;99.90
19164;DHT22;9714;51.208;4.242;2024-01-25T05:16:08;6.50;99.90
19164;DHT22;9714;51.208;4.242;2024-01-25T05:18:35;6.50;99.90
19164;DHT22;9714;51.208;4.242;2024-01-25T05:21:02;6.50;99.90
19164;DHT22;9714;51.208;4.242;2024-01-25T05:23:31;6.40;99.90
19164;DHT22;9714;51.208;4.242;2024-01-25T05:25:59;6.50;99.90
19164;DHT22;9714;51.208;4.242;2024-01-25T05:28:26;6.50;99.90
19164;DHT22;9714;51.208;4.242;2024-01-25T05:30:54;6.40;99.90
19164;DHT22;9714;51.208;4.242;2024-01-25T05:33:22;6.30;99.90
19164;DHT22;9714;51.208;4.242;2024-01-25T05:35:50;6.20;99.90
19164;DHT22;9714;51.208;4.242;2024-01-25T05:38:17;6.20;99.90
19164;DHT22;9714;51.208;4.242;2024-01-25T05:40:44;6.30;99.90
19164;DHT22;9714;51.208;4.242;2024-01-25T05:43:12;6.30;99.90
19164;DHT22;9714;51.208;4.242;2024-01-25T05:45:40;6.30;99.90
19164;DHT22;9714;51.208;4.242;2024-01-25T05:48:08;6.30;99.90
19164;DHT22;9714;51.208;4.242;2024-01-25T05:50:36;6.30;99.90
19164;DHT22;9714;51.208;4.242;2024-01-25T05:53:03;6.30;99.90
19164;DHT22;9714;51.208;4.242;2024-01-25T05:55:30;6.40;99.90
19164;DHT22;9714;51.208;4.242;2024-01-25T05:57:57;6.20;99.90
19164;DHT22;9714;51.208;4.242;2024-01-25T06:00:24;6.30;99.90
19164;DHT22;9714;51.208;4.242;2024-01-25T06:02:51;6.40;99.90
19164;DHT22;9714;51.208;4.242;2024-01-25T06:05:20;6.30;99.90
19164;DHT22;9714;51.208;4.242;2024-01-25T06:07:47;6.30;99.90
19164;DHT22;9714;51.208;4.242;2024-01-25T06:10:16;6.30;99.90
19164;DHT22;9714;51.208;4.242;2024-01-25T06:12:43;6.30;99.90
19164;DHT22;9714;51.208;4.242;2024-01-25T06:15:10;6.30;99.90
19164;DHT22;9714;51.208;4.242;2024-01-25T06:17:37;6.40;99.90
19164;DHT22;9714;51.208;4.242;2024-01-25T06:20:05;6.30;99.90
19164;DHT22;9714;51.208;4.242;2024-01-25T06:22:34;6.50;99.90
19164;DHT22;9714;51.208;4.242;2024-01-25T06:25:01;6.90;99.90
19164;DHT22;9714;51.208;4.242;2024-01-25T06:27:29;6.90;99.90
19164;DHT22;9714;51.208;4.242;2024-01-25T06:29:56;6.90;99.90
19164;DHT22;9714;51.208;4.242;2024-01-25T06:32:24;6.80;99.90
19164;DHT22;9714;51.208;4.242;2024-01-25T06:34:51;6.80;99.90
19164;DHT22;9714;51.208;4.242;2024-01-25T06:37:19;6.80;99.90
19164;DHT22;9714;51.208;4.242;2024-01-25T06:39:47;7.10;99.90
19164;DHT22;9714;51.208;4.242;2024-01-25T06:42:15;7.10;99.90
19164;DHT22;9714;51.208;4.242;2024-01-25T06:44:52;7.10;99.90
19164;DHT22;9714;51.208;4.242;2024-01-25T06:47:19;6.90;99.90
19164;DHT22;9714;51.208;4.242;2024-01-25T06:49:51;7.00;99.90
19164;DHT22;9714;51.208;4.242;2024-01-25T06:52:20;7.00;99.90
19164;DHT22;9714;51.208;4.242;2024-01-25T06:54:50;7.10;99.90
19164;DHT22;9714;51.208;4.242;2024-01-25T06:57:19;7.10;99.90
19164;DHT22;9714;51.208;4.242;2024-01-25T06:59:47;6.90;99.90
19164;DHT22;9714;51.208;4.242;2024-01-25T07:02:15;6.80;99.90
19164;DHT22;9714;51.208;4.242;2024-01-25T07:04:43;6.70;99.90
19164;DHT22;9714;51.208;4.242;2024-01-25T07:07:10;6.70;99.90
19164;DHT22;9714;51.208;4.242;2024-01-25T07:09:37;6.70;99.90
19164;DHT22;9714;51.208;4.242;2024-01-25T07:12:06;6.70;99.90
19164;DHT22;9714;51.208;4.242;2024-01-25T07:14:36;6.70;99.90
19164;DHT22;9714;51.208;4.242;2024-01-25T07:17:03;6.70;99.90
19164;DHT22;9714;51.208;4.242;2024-01-25T07:19:31;6.60;99.90
19164;DHT22;9714;51.208;4.242;2024-01-25T07:21:58;6.50;99.90
19164;DHT22;9714;51.208;4.242;2024-01-25T07:24:26;6.60;99.90
19164;DHT22;9714;51.208;4.242;2024-01-25T07:26:55;7.00;99.90
19164;DHT22;9714;51.208;4.242;2024-01-25T07:29:24;6.90;99.90
19164;DHT22;9714;51.208;4.242;2024-01-25T07:31:51;6.80;99.90
19164;DHT22;9714;51.208;4.242;2024-01-25T07:34:19;6.80;99.90
19164;DHT22;9714;51.208;4.242;2024-01-25T07:36:47;6.80;99.90
19164;DHT22;9714;51.208;4.242;2024-01-25T07:39:14;6.80;99.90
19164;DHT22;9714;51.208;4.242;2024-01-25T07:41:41;6.90;99.90
19164;DHT22;9714;51.208;4.242;2024-01-25T07:44:09;7.10;99.90
19164;DHT22;9714;51.208;4.242;2024-01-25T07:46:37;7.00;99.90
19164;DHT22;9714;51.208;4.242;2024-01-25T07:49:06;7.00;99.90
19164;DHT22;9714;51.208;4.242;2024-01-25T07:51:34;7.00;99.90
19164;DHT22;9714;51.208;4.242;2024-01-25T07:54:01;7.20;99.90
19164;DHT22;9714;51.208;4.242;2024-01-25T07:56:29;7.50;99.90
19164;DHT22;9714;51.208;4.242;2024-01-25T07:58:56;7.70;99.90
19164;DHT22;9714;51.208;4.242;2024-01-25T08:01:25;7.60;99.90
19164;DHT22;9714;51.208;4.242;2024-01-25T08:03:54;7.50;99.90
19164;DHT22;9714;51.208;4.242;2024-01-25T08:06:22;7.30;99.90
19164;DHT22;9714;51.208;4.242;2024-01-25T08:08:49;7.20;99.90
19164;DHT22;9714;51.208;4.242;2024-01-25T08:11:16;7.20;99.90
19164;DHT22;9714;51.208;4.242;2024-01-25T08:13:46;7.10;99.90
19164;DHT22;9714;51.208;4.242;2024-01-25T08:16:13;7.20;99.90
19164;DHT22;9714;51.208;4.242;2024-01-25T08:18:45;7.30;99.90
19164;DHT22;9714;51.208;4.242;2024-01-25T08:21:14;7.50;99.90
19164;DHT22;9714;51.208;4.242;2024-01-25T08:23:44;8.00;99.90
19164;DHT22;9714;51.208;4.242;2024-01-25T08:26:13;8.00;99.90
19164;DHT22;9714;51.208;4.242;2024-01-25T08:28:40;8.00;99.90
19164;DHT22;9714;51.208;4.242;2024-01-25T08:31:09;7.70;99.90
19164;DHT22;9714;51.208;4.242;2024-01-25T08:33:36;7.70;99.90
19164;DHT22;9714;51.208;4.242;2024-01-25T08:36:04;7.70;99.90
19164;DHT22;9714;51.208;4.242;2024-01-25T08:38:33;7.70;99.90
19164;DHT22;9714;51.208;4.242;2024-01-25T08:41:01;8.00;99.90
19164;DHT22;9714;51.208;4.242;2024-01-25T08:43:28;8.10;99.90
19164;DHT22;9714;51.208;4.242;2024-01-25T08:45:55;8.30;99.90
19164;DHT22;9714;51.208;4.242;2024-01-25T08:48:23;8.40;99.90
19164;DHT22;9714;51.208;4.242;2024-01-25T08:50:51;8.50;99.90
19164;DHT22;9714;51.208;4.242;2024-01-25T08:53:20;8.60;99.90
19164;DHT22;9714;51.208;4.242;2024-01-25T08:55:50;8.60;99.90
19164;DHT22;9714;51.208;4.242;2024-01-25T08:58:17;8.60;99.90
19164;DHT22;9714;51.208;4.242;2024-01-25T09:00:44;8.10;99.90
19164;DHT22;9714;51.208;4.242;2024-01-25T09:03:13;7.60;99.90
19164;DHT22;9714;51.208;4.242;2024-01-25T09:05:40;7.40;99.90
19164;DHT22;9714;51.208;4.242;2024-01-25T09:08:11;7.40;99.90
19164;DHT22;9714;51.208;4.242;2024-01-25T09:10:39;7.40;99.90
19164;DHT22;9714;51.208;4.242;2024-01-25T09:13:08;7.60;99.90
19164;DHT22;9714;51.208;4.242;2024-01-25T09:15:36;7.90;99.90
19164;DHT22;9714;51.208;4.242;2024-01-25T09:18:03;8.00;99.90
19164;DHT22;9714;51.208;4.242;2024-01-25T09:20:34;7.90;99.90
19164;DHT22;9714;51.208;4.242;2024-01-25T09:23:03;7.70;99.90
19164;DHT22;9714;51.208;4.242;2024-01-25T09:25:30;7.50;99.90
19164;DHT22;9714;51.208;4.242;2024-01-25T09:27:58;7.40;99.90
19164;DHT22;9714;51.208;4.242;2024-01-25T09:30:27;7.30;99.90
19164;DHT22;9714;51.208;4.242;2024-01-25T09:32:54;7.40;99.90
19164;DHT22;9714;51.208;4.242;2024-01-25T09:35:23;7.60;99.90
19164;DHT22;9714;51.208;4.242;2024-01-25T09:37:50;7.90;99.90
19164;DHT22;9714;51.208;4.242;2024-01-25T09:40:18;7.90;99.90
19164;DHT22;9714;51.208;4.242;2024-01-25T09:42:46;7.80;99.90
19164;DHT22;9714;51.208;4.242;2024-01-25T09:45:17;7.80;99.90
19164;DHT22;9714;51.208;4.242;2024-01-25T09:47:46;7.70;99.90
19164;DHT22;9714;51.208;4.242;2024-01-25T09:50:15;7.50;99.90
19164;DHT22;9714;51.208;4.242;2024-01-25T09:52:43;7.60;99.90
19164;DHT22;9714;51.208;4.242;2024-01-25T09:55:14;7.70;99.90
19164;DHT22;9714;51.208;4.242;2024-01-25T09:57:49;8.10;99.90
19164;DHT22;9714;51.208;4.242;2024-01-25T10:00:21;8.00;99.90
19164;DHT22;9714;51.208;4.242;2024-01-25T10:02:50;7.90;99.90
19164;DHT22;9714;51.208;4.242;2024-01-25T10:05:18;8.10;99.90
19164;DHT22;9714;51.208;4.242;2024-01-25T10:07:46;8.20;99.90
19164;DHT22;9714;51.208;4.242;2024-01-25T10:10:14;8.10;99.90
19164;DHT22;9714;51.208;4.242;2024-01-25T10:12:42;7.90;99.90
19164;DHT22;9714;51.208;4.242;2024-01-25T10:15:10;7.80;99.90
19164;DHT22;9714;51.208;4.242;2024-01-25T10:17:38;7.80;99.90
19164;DHT22;9714;51.208;4.242;2024-01-25T10:20:09;8.20;99.90
19164;DHT22;9714;51.208;4.242;2024-01-25T10:22:37;8.20;99.90
19164;DHT22;9714;51.208;4.242;2024-01-25T10:25:12;8.40;99.90
19164;DHT22;9714;51.208;4.242;2024-01-25T10:27:41;8.10;99.90
19164;DHT22;9714;51.208;4.242;2024-01-25T10:30:10;7.90;99.90
19164;DHT22;9714;51.208;4.242;2024-01-25T10:32:38;7.70;99.90
19164;DHT22;9714;51.208;4.242;2024-01-25T10:35:08;7.50;99.90
19164;DHT22;9714;51.208;4.242;2024-01-25T10:37:36;7.50;99.90
19164;DHT22;9714;51.208;4.242;2024-01-25T10:40:07;7.50;99.90
19164;DHT22;9714;51.208;4.242;2024-01-25T10:42:36;7.60;99.90
19164;DHT22;9714;51.208;4.242;2024-01-25T10:45:05;7.70;99.90
19164;DHT22;9714;51.208;4.242;2024-01-25T10:47:34;7.70;99.90
19164;DHT22;9714;51.208;4.242;2024-01-25T10:50:02;7.80;99.90
19164;DHT22;9714;51.208;4.242;2024-01-25T10:52:31;7.70;99.90
19164;DHT22;9714;51.208;4.242;2024-01-25T10:55:01;7.90;99.90
19164;DHT22;9714;51.208;4.242;2024-01-25T10:57:35;8.00;99.90
19164;DHT22;9714;51.208;4.242;2024-01-25T11:00:07;8.30;99.90
19164;DHT22;9714;51.208;4.242;2024-01-25T11:02:36;8.30;99.90
19164;DHT22;9714;51.208;4.242;2024-01-25T11:05:08;8.20;99.90
19164;DHT22;9714;51.208;4.242;2024-01-25T11:07:43;8.30;99.90
19164;DHT22;9714;51.208;4.242;2024-01-25T11:10:14;8.50;99.90
19164;DHT22;9714;51.208;4.242;2024-01-25T11:12:51;8.60;99.90
19164;DHT22;9714;51.208;4.242;2024-01-25T11:15:23;9.10;99.90
19164;DHT22;9714;51.208;4.242;2024-01-25T11:17:53;9.10;99.90
19164;DHT22;9714;51.208;4.242;2024-01-25T11:20:22;9.50;99.90
19164;DHT22;9714;51.208;4.242;2024-01-25T11:22:56;9.40;99.90
19164;DHT22;9714;51.208;4.242;2024-01-25T11:25:24;9.60;99.90
19164;DHT22;9714;51.208;4.242;2024-01-25T11:27:54;9.80;99.90
19164;DHT22;9714;51.208;4.242;2024-01-25T11:30:21;9.90;99.90
19164;DHT22;9714;51.208;4.242;2024-01-25T11:32:49;9.90;99.90
19164;DHT22;9714;51.208;4.242;2024-01-25T11:35:16;9.90;99.90
19164;DHT22;9714;51.208;4.242;2024-01-25T11:37:45;10.00;99.90
19164;DHT22;9714;51.208;4.242;2024-01-25T11:40:15;10.10;99.90
19164;DHT22;9714;51.208;4.242;2024-01-25T11:42:44;10.20;99.90
19164;DHT22;9714;51.208;4.242;2024-01-25T11:45:12;10.20;99.90
19164;DHT22;9714;51.208;4.242;2024-01-25T11:47:40;10.20;99.90
19164;DHT22;9714;51.208;4.242;2024-01-25T11:50:09;10.00;99.90
19164;DHT22;9714;51.208;4.242;2024-01-25T11:52:37;10.00;99.90
19164;DHT22;9714;51.208;4.242;2024-01-25T11:55:06;10.00;99.90
19164;DHT22;9714;51.208;4.242;2024-01-25T11:57:37;10.40;99.90
19164;DHT22;9714;51.208;4.242;2024-01-25T12:00:05;10.40;99.90
19164;DHT22;9714;51.208;4.242;2024-01-25T12:02:37;10.40;99.90
19164;DHT22;9714;51.208;4.242;2024-01-25T12:05:05;10.50;99.90
19164;DHT22;9714;51.208;4.242;2024-01-25T12:07:34;10.50;99.90
19164;DHT22;9714;51.208;4.242;2024-01-25T12:10:04;10.30;99.90
19164;DHT22;9714;51.208;4.242;2024-01-25T12:12:32;10.50;99.90
19164;DHT22;9714;51.208;4.242;2024-01-25T12:15:05;10.60;99.90
19164;DHT22;9714;51.208;4.242;2024-01-25T12:17:33;10.80;99.90
19164;DHT22;9714;51.208;4.242;2024-01-25T12:20:03;11.00;99.90
19164;DHT22;9714;51.208;4.242;2024-01-25T12:22:37;11.10;99.90
19164;DHT22;9714;51.208;4.242;2024-01-25T12:25:07;11.20;99.90
19164;DHT22;9714;51.208;4.242;2024-01-25T12:27:35;11.20;99.90
19164;DHT22;9714;51.208;4.242;2024-01-25T12:30:05;11.30;99.90
19164;DHT22;9714;51.208;4.242;2024-01-25T12:32:35;11.40;99.90
19164;DHT22;9714;51.208;4.242;2024-01-25T12:35:04;11.40;99.90
19164;DHT22;9714;51.208;4.242;2024-01-25T12:37:32;11.50;99.90
19164;DHT22;9714;51.208;4.242;2024-01-25T12:39:59;11.40;99.90
19164;DHT22;9714;51.208;4.242;2024-01-25T12:42:26;11.50;99.90
19164;DHT22;9714;51.208;4.242;2024-01-25T12:44:54;11.70;99.90
19164;DHT22;9714;51.208;4.242;2024-01-25T12:47:22;11.60;99.90
19164;DHT22;9714;51.208;4.242;2024-01-25T12:49:50;11.60;99.90
19164;DHT22;9714;51.208;4.242;2024-01-25T12:52:17;11.50;99.90
19164;DHT22;9714;51.208;4.242;2024-01-25T12:54:44;11.60;99.90
19164;DHT22;9714;51.208;4.242;2024-01-25T12:57:11;11.80;99.90
19164;DHT22;9714;51.208;4.242;2024-01-25T12:59:39;11.70;99.90
19164;DHT22;9714;51.208;4.242;2024-01-25T13:02:08;11.70;99.90
19164;DHT22;9714;51.208;4.242;2024-01-25T13:04:36;11.50;99.90
19164;DHT22;9714;51.208;4.242;2024-01-25T13:07:04;11.40;99.90
19164;DHT22;9714;51.208;4.242;2024-01-25T13:09:31;11.70;99.90
19164;DHT22;9714;51.208;4.242;2024-01-25T13:12:00;11.50;99.90
19164;DHT22;9714;51.208;4.242;2024-01-25T13:14:27;11.60;99.90
19164;DHT22;9714;51.208;4.242;2024-01-25T13:16:55;11.20;99.90
19164;DHT22;9714;51.208;4.242;2024-01-25T13:19:23;11.40;99.90
19164;DHT22;9714;51.208;4.242;2024-01-25T13:21:52;11.30;99.90
19164;DHT22;9714;51.208;4.242;2024-01-25T13:24:19;11.50;99.90
19164;DHT22;9714;51.208;4.242;2024-01-25T13:26:46;11.50;99.90
19164;DHT22;9714;51.208;4.242;2024-01-25T13:29:13;11.70;99.90
19164;DHT22;9714;51.208;4.242;2024-01-25T13:31:41;11.70;99.90
19164;DHT22;9714;51.208;4.242;2024-01-25T13:34:08;11.90;99.90
19164;DHT22;9714;51.208;4.242;2024-01-25T13:36:36;12.20;99.90
19164;DHT22;9714;51.208;4.242;2024-01-25T13:39:04;11.80;99.90
19164;DHT22;9714;51.208;4.242;2024-01-25T13:41:32;11.80;99.90
19164;DHT22;9714;51.208;4.242;2024-01-25T13:44:02;11.80;99.90
19164;DHT22;9714;51.208;4.242;2024-01-25T13:46:30;11.50;99.90
19164;DHT22;9714;51.208;4.242;2024-01-25T13:48:59;11.50;99.90
19164;DHT22;9714;51.208;4.242;2024-01-25T13:51:26;11.30;99.90
19164;DHT22;9714;51.208;4.242;2024-01-25T13:53:54;11.20;99.90
19164;DHT22;9714;51.208;4.242;2024-01-25T13:56:24;11.30;99.90
19164;DHT22;9714;51.208;4.242;2024-01-25T13:58:52;11.70;99.90
19164;DHT22;9714;51.208;4.242;2024-01-25T14:01:20;11.80;99.90
19164;DHT22;9714;51.208;4.242;2024-01-25T14:03:48;11.80;99.90
19164;DHT22;9714;51.208;4.242;2024-01-25T14:06:16;11.70;99.90
19164;DHT22;9714;51.208;4.242;2024-01-25T14:08:44;11.70;99.90
19164;DHT22;9714;51.208;4.242;2024-01-25T14:11:11;11.30;99.90
19164;DHT22;9714;51.208;4.242;2024-01-25T14:13:41;11.10;99.90
19164;DHT22;9714;51.208;4.242;2024-01-25T14:16:08;11.40;99.90
19164;DHT22;9714;51.208;4.242;2024-01-25T14:18:43;11.60;99.90
19164;DHT22;9714;51.208;4.242;2024-01-25T14:21:10;11.50;99.90
19164;DHT22;9714;51.208;4.242;2024-01-25T14:23:37;11.60;99.90
19164;DHT22;9714;51.208;4.242;2024-01-25T14:26:05;11.60;99.90
19164;DHT22;9714;51.208;4.242;2024-01-25T14:28:32;11.40;99.90
19164;DHT22;9714;51.208;4.242;2024-01-25T14:31:07;11.60;99.90
19164;DHT22;9714;51.208;4.242;2024-01-25T14:33:34;11.70;99.90
19164;DHT22;9714;51.208;4.242;2024-01-25T14:36:02;11.70;99.90
19164;DHT22;9714;51.208;4.242;2024-01-25T14:38:29;11.70;99.90
19164;DHT22;9714;51.208;4.242;2024-01-25T14:40:58;11.70;99.90
19164;DHT22;9714;51.208;4.242;2024-01-25T14:43:25;11.80;99.90
19164;DHT22;9714;51.208;4.242;2024-01-25T14:45:52;11.90;99.90
19164;DHT22;9714;51.208;4.242;2024-01-25T14:48:21;11.80;99.90
19164;DHT22;9714;51.208;4.242;2024-01-25T14:50:48;11.70;99.90
19164;DHT22;9714;51.208;4.242;2024-01-25T14:53:15;11.60;99.90
19164;DHT22;9714;51.208;4.242;2024-01-25T14:55:46;11.70;99.90
19164;DHT22;9714;51.208;4.242;2024-01-25T14:58:13;11.80;99.90
19164;DHT22;9714;51.208;4.242;2024-01-25T15:00:49;11.70;99.90
19164;DHT22;9714;51.208;4.242;2024-01-25T15:03:17;11.80;99.90
19164;DHT22;9714;51.208;4.242;2024-01-25T15:05:48;11.80;99.90
19164;DHT22;9714;51.208;4.242;2024-01-25T15:08:15;11.90;99.90
19164;DHT22;9714;51.208;4.242;2024-01-25T15:10:43;11.80;99.90
19164;DHT22;9714;51.208;4.242;2024-01-25T15:13:10;11.80;99.90
19164;DHT22;9714;51.208;4.242;2024-01-25T15:15:38;11.80;99.90
19164;DHT22;9714;51.208;4.242;2024-01-25T15:18:08;11.90;99.90
19164;DHT22;9714;51.208;4.242;2024-01-25T15:20:36;12.00;99.90
19164;DHT22;9714;51.208;4.242;2024-01-25T15:23:05;12.10;99.90
19164;DHT22;9714;51.208;4.242;2024-01-25T15:25:35;11.90;99.90
19164;DHT22;9714;51.208;4.242;2024-01-25T15:28:02;11.80;99.90
19164;DHT22;9714;51.208;4.242;2024-01-25T15:30:30;12.10;99.90
19164;DHT22;9714;51.208;4.242;2024-01-25T15:32:59;12.10;99.90
19164;DHT22;9714;51.208;4.242;2024-01-25T15:35:28;12.00;99.90
19164;DHT22;9714;51.208;4.242;2024-01-25T15:37:55;11.90;99.90
19164;DHT22;9714;51.208;4.242;2024-01-25T15:40:24;12.00;99.90
19164;DHT22;9714;51.208;4.242;2024-01-25T15:42:51;12.00;99.90
19164;DHT22;9714;51.208;4.242;2024-01-25T15:45:22;12.20;99.90
19164;DHT22;9714;51.208;4.242;2024-01-25T15:47:49;12.20;99.90
19164;DHT22;9714;51.208;4.242;2024-01-25T15:50:17;12.10;99.90
19164;DHT22;9714;51.208;4.242;2024-01-25T15:52:46;11.90;99.90
19164;DHT22;9714;51.208;4.242;2024-01-25T15:55:14;11.90;99.90
19164;DHT22;9714;51.208;4.242;2024-01-25T15:57:45;11.90;99.90
19164;DHT22;9714;51.208;4.242;2024-01-25T16:00:13;11.90;99.90
19164;DHT22;9714;51.208;4.242;2024-01-25T16:02:42;12.00;99.90
19164;DHT22;9714;51.208;4.242;2024-01-25T16:05:09;12.00;99.90